Airfield :
LOGIN :

Register | Disclaimer

   EN    FR    IT 

 










Legend :    VFR   Marginal VFR   IFR   Intensive IFR   Very Intensive IFR
Visi :
Ceiling :
>= 8 km
>= 3000ft
5 to 8 km
1000 to 3000 ft
1500m to 5 km
500 to 1000 ft
800 to 1500m
200 to 500 ft
< 800m
< 200 ft
Symbols :   Thunderstorms  Fog  Heavy snow  Heavy precipitations  Wind > 20 kt
SIGMETs :     Misc.  Thunderstorms  Icing  Turbulence  Mountain Waves  Volcanic Ashes







- Airport Elevation : 776 ft
- IATA code : RMS


ETAR - Ramstein Air Base

CURRENT METAR :
  • 250846Z 25014G21KT 9999 BKN032 BKN044 BKN170 16/10 A2992 RMK AO2A SLP133 $

EXPIRED METARs :
  • 250756Z AUTO 25014G20KT 9999 BKN028 BKN036 16/11 A2991 RMK AO2 SLP129 T01570107 $
  • 250656Z AUTO 26013G17KT 9999 CLR 15/10 A2990 RMK AO2 SLP125 T01460104 $
  • 250556Z 23008KT 9999 FEW050 14/08 A2990 A02A SLPNO

TAF TAF ETAR
Valid from the 25 at 02:00 until the 26 at 08:00 UTC


250202Z 2502/2608 25009KT 9999 FEW050 QNH2987INS
TEMPO 2505/2508 25015G20KT SCT050
BECMG 2507/2508 27015G20KT 8000 -SHRA BKN025 QNH2990INS
BECMG 2512/2513 27015G20KT 9999 NSW BKN030 QNH2990INS
TEMPO 2513/2517 8000 -SHRA BKN025
BECMG 2516/2517 27015G20KT 9999 SCT025 BKN040 QNH2991INS
BECMG 2519/2520 26009KT 9999 SCT030 QNH2995INS TX20/2514Z TN05/2504Z
No reported NOTAMs for that airfield.



MET'MAP, your aeronautical weather chart ! - Copyright ORBIFLY December 2007 - Disclaimer

ORBIFLY MET'MAP TEAM :

Programming & Development : Alexandra Zaïnal
Concept & Development : Baudouin d'Aumeries
Co-Development & Prog : Marc-Olivier Méhu
Technical & hardware support : Manuel Goepfert

Contact : metmap@orbifly.com




SOURCES & CREDITS :

   NOAA